createdAt,value
2022-10-12T00:00:50.158Z,16.17
2022-10-12T00:03:18.188Z,16.58
2022-10-12T00:05:46.223Z,16.42
2022-10-12T00:08:14.405Z,15.88
2022-10-12T00:10:45.545Z,17.90
2022-10-12T00:13:13.514Z,17.50
2022-10-12T00:15:43.148Z,17.17
2022-10-12T00:18:11.065Z,15.80
2022-10-12T00:20:39.077Z,15.38
2022-10-12T00:23:08.004Z,15.75
2022-10-12T00:25:37.676Z,16.17
2022-10-12T00:28:06.170Z,16.70
2022-10-12T00:30:34.457Z,16.58
2022-10-12T00:33:03.707Z,15.60
2022-10-12T00:35:31.718Z,15.18
2022-10-12T00:37:59.688Z,15.80
2022-10-12T00:40:27.702Z,15.98
2022-10-12T00:42:55.610Z,15.65
2022-10-12T00:45:26.264Z,16.05
2022-10-12T00:47:58.216Z,15.75
2022-10-12T00:50:30.496Z,16.73
2022-10-12T00:53:04.657Z,15.30
2022-10-12T00:55:36.830Z,17.07
2022-10-12T00:58:06.279Z,15.45
2022-10-12T01:00:34.402Z,15.02
2022-10-12T01:03:02.722Z,14.77
2022-10-12T01:05:32.110Z,15.15
2022-10-12T01:08:00.656Z,15.50
2022-10-12T01:10:28.725Z,15.70
2022-10-12T01:12:56.832Z,14.32
2022-10-12T01:15:32.338Z,14.88
2022-10-12T01:18:07.505Z,14.13
2022-10-12T01:21:00.418Z,15.73
2022-10-12T01:23:50.688Z,13.82
2022-10-12T01:26:47.445Z,15.73
2022-10-12T01:29:31.492Z,14.50
2022-10-12T01:32:07.758Z,15.93
2022-10-12T01:34:43.829Z,15.32
2022-10-12T01:37:17.858Z,15.18
2022-10-12T01:39:51.237Z,15.48
2022-10-12T01:42:24.548Z,15.23
2022-10-12T01:44:52.492Z,13.95
2022-10-12T01:47:22.217Z,14.93
2022-10-12T01:49:50.256Z,14.93
2022-10-12T01:52:29.523Z,13.88
2022-10-12T01:55:17.439Z,12.95
2022-10-12T01:57:56.272Z,14.38
2022-10-12T02:00:26.617Z,15.57
2022-10-12T02:03:06.101Z,17.98
2022-10-12T02:05:37.692Z,18.02
2022-10-12T02:08:12.950Z,17.25
2022-10-12T02:10:45.984Z,16.20
2022-10-12T02:13:15.974Z,15.57
2022-10-12T02:15:45.813Z,14.73
2022-10-12T02:18:19.090Z,14.52
2022-10-12T02:20:48.755Z,16.63
2022-10-12T02:23:18.417Z,15.27
2022-10-12T02:25:48.157Z,14.88
2022-10-12T02:28:19.610Z,14.70
2022-10-12T02:30:53.514Z,15.80
2022-10-12T02:33:27.092Z,15.85
2022-10-12T02:36:01.466Z,15.65
2022-10-12T02:38:33.891Z,15.70
2022-10-12T02:41:06.609Z,16.75
2022-10-12T02:43:39.490Z,15.75
2022-10-12T02:48:41.243Z,16.67
2022-10-12T02:51:11.321Z,15.27
2022-10-12T02:53:40.133Z,14.93
2022-10-12T02:56:11.914Z,16.08
2022-10-12T02:58:40.492Z,16.10
2022-10-12T03:01:08.753Z,18.23
2022-10-12T03:03:38.082Z,17.88
2022-10-12T03:06:06.350Z,17.58
2022-10-12T03:08:34.319Z,16.42
2022-10-12T03:11:03.575Z,18.50
2022-10-12T03:13:31.771Z,19.60
2022-10-12T03:16:03.320Z,18.80
2022-10-12T03:18:31.456Z,17.42
2022-10-12T03:21:01.128Z,17.83
2022-10-12T03:23:29.146Z,17.95
2022-10-12T03:25:57.267Z,17.70
2022-10-12T03:28:25.392Z,17.15
2022-10-12T03:30:53.410Z,16.92
2022-10-12T03:33:21.390Z,17.65
2022-10-12T03:35:49.665Z,17.42
2022-10-12T03:38:19.915Z,18.02
2022-10-12T03:40:48.269Z,16.92
2022-10-12T03:43:17.161Z,16.55
2022-10-12T03:45:45.169Z,16.20
2022-10-12T03:48:13.351Z,16.38
2022-10-12T03:50:41.474Z,16.30
2022-10-12T03:53:09.483Z,16.60
2022-10-12T03:55:39.049Z,16.83
2022-10-12T03:58:06.999Z,16.10
2022-10-12T04:00:35.110Z,17.13
2022-10-12T04:03:03.148Z,17.88
2022-10-12T04:05:31.959Z,16.02
2022-10-12T04:08:00.379Z,17.30
2022-10-12T04:10:28.385Z,16.52
2022-10-12T04:12:57.823Z,17.40
2022-10-12T04:15:25.796Z,16.73
2022-10-12T04:17:54.418Z,17.40
2022-10-12T04:20:22.408Z,17.95
2022-10-12T04:22:50.438Z,19.13
2022-10-12T04:25:18.501Z,18.63
2022-10-12T04:27:46.472Z,19.05
2022-10-12T04:30:16.102Z,17.73
2022-10-12T04:32:46.487Z,17.50
2022-10-12T04:35:14.460Z,16.88
2022-10-12T04:37:42.463Z,17.02
2022-10-12T04:40:11.214Z,17.98
2022-10-12T04:42:41.483Z,16.75
2022-10-12T04:45:10.396Z,15.50
2022-10-12T04:47:40.011Z,15.10
2022-10-12T04:50:09.145Z,15.38
2022-10-12T04:52:37.109Z,15.65
2022-10-12T04:55:05.674Z,15.48
2022-10-12T04:57:35.972Z,15.50
2022-10-12T05:00:04.651Z,15.93
2022-10-12T05:02:32.647Z,17.70
2022-10-12T05:05:01.959Z,17.73
2022-10-12T05:07:29.941Z,16.85
2022-10-12T05:09:57.923Z,15.15
2022-10-12T05:12:25.927Z,14.63
2022-10-12T05:14:53.902Z,15.70
2022-10-12T05:17:21.803Z,14.68
2022-10-12T05:19:52.688Z,14.85
2022-10-12T05:22:21.977Z,16.67
2022-10-12T05:24:53.652Z,15.20
2022-10-12T05:27:22.022Z,15.20
2022-10-12T05:29:50.097Z,13.57
2022-10-12T05:32:18.171Z,13.40
2022-10-12T05:34:46.180Z,13.88
2022-10-12T05:37:14.171Z,14.45
2022-10-12T05:39:43.557Z,14.10
2022-10-12T05:42:11.464Z,15.15
2022-10-12T05:44:41.468Z,15.20
2022-10-12T05:47:09.453Z,17.70
2022-10-12T05:49:37.506Z,19.63
2022-10-12T05:52:05.691Z,14.43
2022-10-12T05:54:33.673Z,14.40
2022-10-12T05:57:03.335Z,16.45
2022-10-12T05:59:31.306Z,13.85
2022-10-12T06:01:59.258Z,14.00
2022-10-12T06:04:27.373Z,14.52
2022-10-12T06:06:55.284Z,14.25
2022-10-12T06:09:23.422Z,13.38
2022-10-12T06:11:51.393Z,12.85
2022-10-12T06:14:20.703Z,12.98
2022-10-12T06:16:51.103Z,13.40
2022-10-12T06:19:24.682Z,13.48
2022-10-12T06:21:52.754Z,13.23
2022-10-12T06:24:20.670Z,13.82
2022-10-12T06:26:48.652Z,13.57
2022-10-12T06:29:17.496Z,16.17
2022-10-12T06:31:51.443Z,15.73
2022-10-12T06:34:20.021Z,15.65
2022-10-12T06:36:48.056Z,16.83
2022-10-12T06:39:17.289Z,22.20
2022-10-12T06:41:45.329Z,23.05
2022-10-12T06:44:13.522Z,19.08
2022-10-12T06:46:41.497Z,12.43
2022-10-12T06:49:11.489Z,15.40
2022-10-12T06:51:39.456Z,13.88
2022-10-12T06:54:07.448Z,14.10
2022-10-12T06:56:35.636Z,12.10
2022-10-12T06:59:03.552Z,12.90
2022-10-12T07:01:31.679Z,11.77
2022-10-12T07:04:00.925Z,10.23
2022-10-12T07:06:30.694Z,9.60
2022-10-12T07:09:01.132Z,8.45
2022-10-12T07:11:29.408Z,8.02
2022-10-12T07:13:58.747Z,9.73
2022-10-12T07:16:27.039Z,8.40
2022-10-12T07:18:55.032Z,9.15
2022-10-12T07:21:23.107Z,8.70
2022-10-12T07:23:53.215Z,8.23
2022-10-12T07:26:21.371Z,9.32
2022-10-12T07:28:49.398Z,8.82
2022-10-12T07:31:17.403Z,9.27
2022-10-12T07:33:45.395Z,9.63
2022-10-12T07:36:15.656Z,11.90
2022-10-12T07:38:48.711Z,9.82
2022-10-12T07:41:18.725Z,9.30
2022-10-12T07:43:46.812Z,9.80
2022-10-12T07:46:14.984Z,10.45
2022-10-12T07:48:48.892Z,9.80
2022-10-12T07:51:19.793Z,8.20
2022-10-12T07:53:48.039Z,8.40
2022-10-12T07:56:17.919Z,7.75
2022-10-12T07:58:50.097Z,7.95
2022-10-12T08:01:19.644Z,9.50
2022-10-12T08:03:48.047Z,8.20
2022-10-12T08:06:18.594Z,7.95
2022-10-12T08:08:46.688Z,7.93
2022-10-12T08:11:14.907Z,7.13
2022-10-12T08:13:44.323Z,8.02
2022-10-12T08:16:15.912Z,8.82
2022-10-12T08:18:44.427Z,9.00
2022-10-12T08:21:14.527Z,7.25
2022-10-12T08:23:44.392Z,9.23
2022-10-12T08:26:13.011Z,7.50
2022-10-12T08:28:41.415Z,8.60
2022-10-12T08:31:13.348Z,7.80
2022-10-12T08:33:41.403Z,8.13
2022-10-12T08:36:10.119Z,8.77
2022-10-12T08:38:39.370Z,9.48
2022-10-12T08:41:27.311Z,8.80
2022-10-12T08:44:35.029Z,8.60
2022-10-12T08:47:12.597Z,9.02
2022-10-12T08:49:45.144Z,9.10
2022-10-12T08:52:28.097Z,8.25
2022-10-12T08:55:01.307Z,9.10
2022-10-12T08:57:29.427Z,8.38
2022-10-12T08:59:57.459Z,7.25
2022-10-12T09:02:51.938Z,7.97
2022-10-12T09:05:28.586Z,9.52
2022-10-12T09:08:02.204Z,9.23
2022-10-12T09:10:42.581Z,8.48
2022-10-12T09:13:23.734Z,7.45
2022-10-12T09:15:55.845Z,8.23
2022-10-12T09:18:40.471Z,8.20
2022-10-12T09:23:41.091Z,9.20
2022-10-12T09:26:16.735Z,5.63
2022-10-12T09:28:47.052Z,6.22
2022-10-12T09:31:31.356Z,13.88
2022-10-12T09:34:05.486Z,5.97
2022-10-12T09:36:37.372Z,6.43
2022-10-12T09:39:07.976Z,6.20
2022-10-12T09:41:39.858Z,7.30
2022-10-12T09:44:10.847Z,49.35
2022-10-12T09:46:43.093Z,15.30
2022-10-12T09:49:12.393Z,6.88
2022-10-12T09:51:40.670Z,7.18
2022-10-12T09:54:16.679Z,5.75
2022-10-12T09:56:49.901Z,16.88
2022-10-12T09:59:28.096Z,5.82
2022-10-12T10:02:04.899Z,40.08
2022-10-12T10:04:34.790Z,5.05
2022-10-12T10:07:19.542Z,4.45
2022-10-12T10:09:49.068Z,15.35
2022-10-12T10:12:24.627Z,24.63
2022-10-12T10:14:54.604Z,5.20
2022-10-12T10:17:27.537Z,4.30
2022-10-12T10:19:58.946Z,4.20
2022-10-12T10:22:27.529Z,3.90
2022-10-12T10:25:00.545Z,5.05
2022-10-12T10:27:32.392Z,4.30
2022-10-12T10:30:29.498Z,4.32
2022-10-12T10:33:12.842Z,4.18
2022-10-12T10:35:43.444Z,4.88
2022-10-12T10:38:16.657Z,3.65
2022-10-12T10:40:51.973Z,5.32
2022-10-12T10:43:25.940Z,4.43
2022-10-12T10:45:56.664Z,3.67
2022-10-12T10:48:29.132Z,3.25
2022-10-12T10:51:01.483Z,3.50
2022-10-12T10:53:33.282Z,3.78
2022-10-12T10:56:06.709Z,3.97
2022-10-12T10:58:38.287Z,6.50
2022-10-12T11:01:19.418Z,3.28
2022-10-12T11:03:59.481Z,4.60
2022-10-12T11:06:36.793Z,4.32
2022-10-12T11:09:08.479Z,3.83
2022-10-12T11:11:38.463Z,2.83
2022-10-12T11:14:14.854Z,2.63
2022-10-12T11:16:46.774Z,3.40
2022-10-12T11:19:30.759Z,4.30
2022-10-12T11:22:05.742Z,2.70
2022-10-12T11:24:39.772Z,4.32
2022-10-12T11:27:13.742Z,3.88
2022-10-12T11:29:42.352Z,4.03
2022-10-12T11:32:22.758Z,3.20
2022-10-12T11:34:54.661Z,3.13
2022-10-12T11:37:34.269Z,3.10
2022-10-12T11:40:03.810Z,4.15
2022-10-12T11:42:37.093Z,3.53
2022-10-12T11:45:18.994Z,3.67
2022-10-12T11:47:49.186Z,3.30
2022-10-12T11:50:28.954Z,2.47
2022-10-12T11:53:01.254Z,4.00
2022-10-12T11:55:45.162Z,3.40
2022-10-12T11:58:18.966Z,3.10
2022-10-12T12:01:04.173Z,3.38
2022-10-12T12:03:39.757Z,3.40
2022-10-12T12:06:43.222Z,3.15
2022-10-12T12:11:52.298Z,3.53
2022-10-12T12:14:47.898Z,4.75
2022-10-12T12:17:28.126Z,3.80
2022-10-12T12:22:48.531Z,4.38
2022-10-12T12:25:29.347Z,3.38
2022-10-12T12:28:00.468Z,4.25
2022-10-12T12:30:38.419Z,4.05
2022-10-12T12:33:24.999Z,2.30
2022-10-12T12:35:56.168Z,2.40
2022-10-12T12:38:27.649Z,4.45
2022-10-12T12:41:08.758Z,3.72
2022-10-12T12:44:04.332Z,3.50
2022-10-12T12:47:32.531Z,3.17
2022-10-12T12:49:57.312Z,2.75
2022-10-12T12:52:29.325Z,3.22
2022-10-12T12:55:37.247Z,3.03
2022-10-12T12:58:21.220Z,2.88
2022-10-12T13:01:07.255Z,2.42
2022-10-12T13:03:59.434Z,6.32
2022-10-12T13:06:59.520Z,2.67
2022-10-12T13:10:00.520Z,3.05
2022-10-12T13:12:50.816Z,2.45
2022-10-12T13:15:35.284Z,2.50
2022-10-12T13:18:45.344Z,3.05
2022-10-12T13:21:16.653Z,3.00
2022-10-12T13:23:47.108Z,3.17
2022-10-12T13:26:19.875Z,2.53
2022-10-12T13:31:24.091Z,2.47
2022-10-12T13:34:00.504Z,4.43
2022-10-12T13:36:31.735Z,2.50
2022-10-12T13:39:01.606Z,2.85
2022-10-12T13:41:31.288Z,3.42
2022-10-12T13:44:01.108Z,3.30
2022-10-12T13:46:40.761Z,3.78
2022-10-12T13:49:15.822Z,2.75
2022-10-12T13:51:45.126Z,3.35
2022-10-12T13:54:18.270Z,2.90
2022-10-12T13:56:48.822Z,2.85
2022-10-12T13:59:20.715Z,2.92
2022-10-12T14:01:55.764Z,2.70
2022-10-12T14:04:27.801Z,3.35
2022-10-12T14:07:00.657Z,2.20
2022-10-12T14:11:58.047Z,2.97
2022-10-12T14:14:32.748Z,3.30
2022-10-12T14:17:02.717Z,2.60
2022-10-12T14:19:42.690Z,2.35
2022-10-12T14:22:11.273Z,2.28
2022-10-12T14:24:40.302Z,2.67
2022-10-12T14:27:09.818Z,2.10
2022-10-12T14:29:44.634Z,2.30
2022-10-12T14:32:42.406Z,2.75
2022-10-12T14:35:26.036Z,3.22
2022-10-12T14:37:55.923Z,5.15
2022-10-12T14:40:37.164Z,3.42
2022-10-12T14:43:09.424Z,2.42
2022-10-12T14:45:37.616Z,2.95
2022-10-12T14:48:15.052Z,2.70
2022-10-12T14:50:44.790Z,2.58
2022-10-12T14:53:14.728Z,2.45
2022-10-12T14:55:43.743Z,3.60
2022-10-12T14:58:16.208Z,3.03
2022-10-12T15:00:44.999Z,2.72
2022-10-12T15:03:14.414Z,2.85
2022-10-12T15:05:42.447Z,2.70
2022-10-12T15:08:10.676Z,2.55
2022-10-12T15:10:38.991Z,2.85
2022-10-12T15:13:06.966Z,2.92
2022-10-12T15:15:40.667Z,2.90
2022-10-12T15:18:11.023Z,2.72
2022-10-12T15:20:44.192Z,2.55
2022-10-12T15:23:15.096Z,2.92
2022-10-12T15:25:46.063Z,3.28
2022-10-12T15:28:14.360Z,3.10
2022-10-12T15:31:11.838Z,3.20
2022-10-12T15:33:35.549Z,2.95
2022-10-12T15:36:05.028Z,2.50
2022-10-12T15:38:33.145Z,3.50
2022-10-12T15:41:01.124Z,4.25
2022-10-12T15:43:29.652Z,3.10
2022-10-12T15:45:59.311Z,3.95
2022-10-12T15:48:28.353Z,4.47
2022-10-12T15:50:56.420Z,4.68
2022-10-12T15:53:27.248Z,5.18
2022-10-12T15:55:56.592Z,4.13
2022-10-12T15:58:25.609Z,5.03
2022-10-12T16:00:53.855Z,3.40
2022-10-12T16:03:25.940Z,5.57
2022-10-12T16:05:55.218Z,2.90
2022-10-12T16:08:23.163Z,3.75
2022-10-12T16:10:52.826Z,3.60
2022-10-12T16:13:20.828Z,4.05
2022-10-12T16:15:49.073Z,3.42
2022-10-12T16:18:17.704Z,3.70
2022-10-12T16:20:53.452Z,2.97
2022-10-12T16:23:24.766Z,3.65
2022-10-12T16:25:54.757Z,3.72
2022-10-12T16:28:23.864Z,4.07
2022-10-12T16:30:52.546Z,4.03
2022-10-12T16:33:20.691Z,3.90
2022-10-12T16:35:48.737Z,4.10
2022-10-12T16:38:19.710Z,4.03
2022-10-12T16:40:49.209Z,4.40
2022-10-12T16:43:19.539Z,5.03
2022-10-12T16:45:56.102Z,5.45
2022-10-12T16:48:26.613Z,5.80
2022-10-12T16:50:54.563Z,4.25
2022-10-12T16:53:22.606Z,4.47
2022-10-12T16:55:50.825Z,4.75
2022-10-12T16:58:20.274Z,4.72
2022-10-12T17:00:48.425Z,4.45
2022-10-12T17:03:16.505Z,7.97
2022-10-12T17:05:44.553Z,7.35
2022-10-12T17:08:15.813Z,8.15
2022-10-12T17:10:44.963Z,7.72
2022-10-12T17:13:14.462Z,8.20
2022-10-12T17:15:44.145Z,7.35
2022-10-12T17:18:12.535Z,6.57
2022-10-12T17:20:40.550Z,6.60
2022-10-12T17:23:11.085Z,6.43
2022-10-12T17:25:39.128Z,6.75
2022-10-12T17:28:07.240Z,6.40
2022-10-12T17:30:38.364Z,6.60
2022-10-12T17:33:07.703Z,5.97
2022-10-12T17:35:39.832Z,6.32
2022-10-12T17:38:07.816Z,6.90
2022-10-12T17:40:35.882Z,7.60
2022-10-12T17:43:03.862Z,7.45
2022-10-12T17:45:34.255Z,5.68
2022-10-12T17:48:02.224Z,6.28
2022-10-12T17:50:31.553Z,6.68
2022-10-12T17:52:59.562Z,6.15
2022-10-12T17:55:47.707Z,5.78
2022-10-12T17:58:15.375Z,5.53
2022-10-12T18:00:43.449Z,5.15
2022-10-12T18:03:12.363Z,5.47
2022-10-12T18:05:41.751Z,5.68
2022-10-12T18:08:12.073Z,5.63
2022-10-12T18:10:41.393Z,5.55
2022-10-12T18:13:09.772Z,5.85
2022-10-12T18:15:43.136Z,7.07
2022-10-12T18:18:15.157Z,6.38
2022-10-12T18:20:45.037Z,6.10
2022-10-12T18:23:13.184Z,6.18
2022-10-12T18:25:43.140Z,5.88
2022-10-12T18:28:12.691Z,5.55
2022-10-12T18:30:47.765Z,5.50
2022-10-12T18:33:16.371Z,5.80
2022-10-12T18:35:45.720Z,6.57
2022-10-12T18:38:13.671Z,6.93
2022-10-12T18:40:42.512Z,6.30
2022-10-12T18:43:11.202Z,6.80
2022-10-12T18:45:42.859Z,6.93
2022-10-12T18:48:10.900Z,6.40
2022-10-12T18:50:41.216Z,7.38
2022-10-12T18:53:10.627Z,7.35
2022-10-12T18:55:38.972Z,9.35
2022-10-12T18:58:07.453Z,9.50
2022-10-12T19:00:35.564Z,8.90
2022-10-12T19:03:03.799Z,8.13
2022-10-12T19:05:32.006Z,8.50
2022-10-12T19:07:59.955Z,8.93
2022-10-12T19:10:29.441Z,9.20
2022-10-12T19:12:58.667Z,9.45
2022-10-12T19:15:28.534Z,9.77
2022-10-12T19:17:58.746Z,10.33
2022-10-12T19:20:26.848Z,10.32
2022-10-12T19:22:54.812Z,10.32
2022-10-12T19:25:25.349Z,10.88
2022-10-12T19:27:54.675Z,9.85
2022-10-12T19:30:22.595Z,9.35
2022-10-12T19:32:50.604Z,9.75
2022-10-12T19:35:18.649Z,9.60
2022-10-12T19:37:46.692Z,10.23
2022-10-12T19:40:14.958Z,9.43
2022-10-12T19:42:42.968Z,9.80
2022-10-12T19:45:12.567Z,9.93
2022-10-12T19:47:40.534Z,9.48
2022-10-12T19:50:09.200Z,10.00
2022-10-12T19:52:37.152Z,10.10
2022-10-12T19:55:05.621Z,10.07
2022-10-12T19:57:37.961Z,10.43
2022-10-12T20:00:08.641Z,11.75
2022-10-12T20:02:42.926Z,12.30
2022-10-12T20:05:11.084Z,11.15
2022-10-12T20:07:39.692Z,10.70
2022-10-12T20:10:09.001Z,11.38
2022-10-12T20:12:37.114Z,11.10
2022-10-12T20:15:05.677Z,10.23
2022-10-12T20:17:33.683Z,10.65
2022-10-12T20:20:03.017Z,10.98
2022-10-12T20:22:30.957Z,11.65
2022-10-12T20:24:58.837Z,10.98
2022-10-12T20:27:27.159Z,11.23
2022-10-12T20:29:55.069Z,11.45
2022-10-12T20:32:23.007Z,10.15
2022-10-12T20:34:52.582Z,10.80
2022-10-12T20:37:22.498Z,10.20
2022-10-12T20:39:52.463Z,10.75
2022-10-12T20:42:22.056Z,10.30
2022-10-12T20:44:53.311Z,10.07
2022-10-12T20:47:21.264Z,9.68
2022-10-12T20:49:49.265Z,10.30
2022-10-12T20:52:17.564Z,10.23
2022-10-12T20:54:47.149Z,10.25
2022-10-12T20:57:15.154Z,10.38
2022-10-12T20:59:45.559Z,12.23
2022-10-12T21:02:13.487Z,16.48
2022-10-12T21:04:41.448Z,11.18
2022-10-12T21:07:09.690Z,10.25
2022-10-12T21:09:37.665Z,11.30
2022-10-12T21:12:07.108Z,11.05
2022-10-12T21:14:35.364Z,9.93
2022-10-12T21:17:05.764Z,11.75
2022-10-12T21:19:33.765Z,12.90
2022-10-12T21:22:01.685Z,9.55
2022-10-12T21:24:29.701Z,11.88
2022-10-12T21:26:57.647Z,10.02
2022-10-12T21:29:26.900Z,10.48
2022-10-12T21:31:54.875Z,11.68
2022-10-12T21:34:23.684Z,11.70
2022-10-12T21:36:51.659Z,10.25
2022-10-12T21:39:20.569Z,11.35
2022-10-12T21:41:48.548Z,9.95
2022-10-12T21:44:16.466Z,10.52
2022-10-12T21:46:45.738Z,11.75
2022-10-12T21:49:13.667Z,10.70
2022-10-12T21:51:41.603Z,11.15
2022-10-12T21:54:09.632Z,11.48
2022-10-12T21:56:38.464Z,11.05
2022-10-12T21:59:07.199Z,11.02
2022-10-12T22:01:37.164Z,10.38
2022-10-12T22:04:08.869Z,10.50
2022-10-12T22:06:36.839Z,9.75
2022-10-12T22:09:09.177Z,9.65
2022-10-12T22:11:38.974Z,10.43
2022-10-12T22:14:13.559Z,11.95
2022-10-12T22:16:43.171Z,11.43
2022-10-12T22:19:15.356Z,10.50
2022-10-12T22:21:43.381Z,11.35
2022-10-12T22:24:11.352Z,11.00
2022-10-12T22:26:39.463Z,9.90
2022-10-12T22:29:08.664Z,11.43
2022-10-12T22:31:37.377Z,10.10
2022-10-12T22:34:05.453Z,10.07
2022-10-12T22:36:37.822Z,10.05
2022-10-12T22:39:06.708Z,9.95
2022-10-12T22:41:34.658Z,8.65
2022-10-12T22:44:02.656Z,9.40
2022-10-12T22:46:31.027Z,9.00
2022-10-12T22:48:59.031Z,9.38
2022-10-12T22:51:30.405Z,9.60
2022-10-12T22:54:00.329Z,9.02
2022-10-12T22:56:28.976Z,10.13
2022-10-12T22:58:58.235Z,9.55
2022-10-12T23:01:29.217Z,9.02
2022-10-12T23:03:57.453Z,9.13
2022-10-12T23:06:26.458Z,8.65
2022-10-12T23:08:54.659Z,9.57
2022-10-12T23:11:25.711Z,8.50
2022-10-12T23:13:54.121Z,9.63
2022-10-12T23:16:23.775Z,9.10
2022-10-12T23:18:58.197Z,9.57
2022-10-12T23:21:28.381Z,10.13
2022-10-12T23:23:56.897Z,9.35
2022-10-12T23:26:27.464Z,9.38
2022-10-12T23:28:56.219Z,10.73
2022-10-12T23:31:26.291Z,9.90
2022-10-12T23:33:57.700Z,9.52
2022-10-12T23:36:26.177Z,9.60
2022-10-12T23:38:54.411Z,10.20
2022-10-12T23:41:22.507Z,9.05
2022-10-12T23:43:51.709Z,9.30
2022-10-12T23:46:19.675Z,9.18
2022-10-12T23:48:47.608Z,8.68
2022-10-12T23:51:17.702Z,9.73
2022-10-12T23:53:45.994Z,9.20
2022-10-12T23:56:14.321Z,9.80
2022-10-12T23:58:44.568Z,9.30
